sensor_id;sensor_type;location;lat;lon;timestamp;pressure;altitude;pressure_sealevel;temperature;humidity
36692;BME280;22678;52.052;4.242;2023-02-18T00:00:55;102274.94;;;9.36;100.00
36692;BME280;22678;52.052;4.242;2023-02-18T00:03:22;102265.28;;;9.35;100.00
36692;BME280;22678;52.052;4.242;2023-02-18T00:05:48;102257.28;;;9.27;100.00
36692;BME280;22678;52.052;4.242;2023-02-18T00:08:13;102255.66;;;9.32;100.00
36692;BME280;22678;52.052;4.242;2023-02-18T00:10:42;102253.06;;;9.34;100.00
36692;BME280;22678;52.052;4.242;2023-02-18T00:13:07;102245.16;;;9.34;100.00
36692;BME280;22678;52.052;4.242;2023-02-18T00:15:37;102246.91;;;9.35;100.00
36692;BME280;22678;52.052;4.242;2023-02-18T00:18:03;102240.75;;;9.31;100.00
36692;BME280;22678;52.052;4.242;2023-02-18T00:20:28;102244.28;;;9.35;100.00
36692;BME280;22678;52.052;4.242;2023-02-18T00:22:54;102240.81;;;9.36;100.00
36692;BME280;22678;52.052;4.242;2023-02-18T00:25:19;102240.75;;;9.33;100.00
36692;BME280;22678;52.052;4.242;2023-02-18T00:27:44;102249.59;;;9.38;100.00
36692;BME280;22678;52.052;4.242;2023-02-18T00:30:10;102240.81;;;9.36;100.00
36692;BME280;22678;52.052;4.242;2023-02-18T00:32:35;102230.22;;;9.29;100.00
36692;BME280;22678;52.052;4.242;2023-02-18T00:35:01;102240.03;;;9.40;100.00
36692;BME280;22678;52.052;4.242;2023-02-18T00:37:26;102226.88;;;9.38;100.00
36692;BME280;22678;52.052;4.242;2023-02-18T00:39:51;102233.97;;;9.42;100.00
36692;BME280;22678;52.052;4.242;2023-02-18T00:42:17;102222.50;;;9.39;100.00
36692;BME280;22678;52.052;4.242;2023-02-18T00:44:42;102229.59;;;9.43;100.00
36692;BME280;22678;52.052;4.242;2023-02-18T00:47:07;102216.47;;;9.43;100.00
36692;BME280;22678;52.052;4.242;2023-02-18T00:49:33;102221.75;;;9.46;100.00
36692;BME280;22678;52.052;4.242;2023-02-18T00:51:58;102207.59;;;9.38;100.00
36692;BME280;22678;52.052;4.242;2023-02-18T00:54:24;102229.72;;;9.51;100.00
36692;BME280;22678;52.052;4.242;2023-02-18T00:56:49;102212.97;;;9.44;100.00
36692;BME280;22678;52.052;4.242;2023-02-18T00:59:15;102214.78;;;9.48;100.00
36692;BME280;22678;52.052;4.242;2023-02-18T01:01:40;102222.72;;;9.50;100.00
36692;BME280;22678;52.052;4.242;2023-02-18T01:04:05;102216.66;;;9.55;100.00
36692;BME280;22678;52.052;4.242;2023-02-18T01:06:31;102213.13;;;9.53;100.00
36692;BME280;22678;52.052;4.242;2023-02-18T01:08:56;102217.53;;;9.53;100.00
36692;BME280;22678;52.052;4.242;2023-02-18T01:11:21;102205.22;;;9.50;100.00
36692;BME280;22678;52.052;4.242;2023-02-18T01:13:47;102216.63;;;9.54;100.00
36692;BME280;22678;52.052;4.242;2023-02-18T01:16:12;102202.53;;;9.47;100.00
36692;BME280;22678;52.052;4.242;2023-02-18T01:18:38;102197.34;;;9.50;100.00
36692;BME280;22678;52.052;4.242;2023-02-18T01:21:05;102192.03;;;9.47;100.00
36692;BME280;22678;52.052;4.242;2023-02-18T01:23:33;102191.16;;;9.48;100.00
36692;BME280;22678;52.052;4.242;2023-02-18T01:25:58;102176.16;;;9.41;100.00
36692;BME280;22678;52.052;4.242;2023-02-18T01:28:24;102172.56;;;9.36;100.00
36692;BME280;22678;52.052;4.242;2023-02-18T01:30:50;102180.53;;;9.42;100.00
36692;BME280;22678;52.052;4.242;2023-02-18T01:33:17;102201.66;;;9.48;100.00
36692;BME280;22678;52.052;4.242;2023-02-18T01:35:42;102184.91;;;9.40;100.00
36692;BME280;22678;52.052;4.242;2023-02-18T01:38:08;102199.94;;;9.49;100.00
36692;BME280;22678;52.052;4.242;2023-02-18T01:40:35;102187.69;;;9.49;100.00
36692;BME280;22678;52.052;4.242;2023-02-18T01:43:00;102185.09;;;9.52;100.00
36692;BME280;22678;52.052;4.242;2023-02-18T01:47:58;102176.31;;;9.50;100.00
36692;BME280;22678;52.052;4.242;2023-02-18T01:50:25;102161.38;;;9.46;100.00
36692;BME280;22678;52.052;4.242;2023-02-18T01:52:51;102153.50;;;9.46;100.00
36692;BME280;22678;52.052;4.242;2023-02-18T01:55:16;102173.81;;;9.56;100.00
36692;BME280;22678;52.052;4.242;2023-02-18T01:57:42;102158.84;;;9.52;100.00
36692;BME280;22678;52.052;4.242;2023-02-18T02:00:13;102154.53;;;9.56;100.00
36692;BME280;22678;52.052;4.242;2023-02-18T02:02:41;102151.94;;;9.57;100.00
36692;BME280;22678;52.052;4.242;2023-02-18T02:05:08;102137.09;;;9.59;100.00
36692;BME280;22678;52.052;4.242;2023-02-18T02:07:33;102138.88;;;9.62;100.00
36692;BME280;22678;52.052;4.242;2023-02-18T02:09:59;102129.25;;;9.62;100.00
36692;BME280;22678;52.052;4.242;2023-02-18T02:15:17;102129.28;;;9.65;100.00
36692;BME280;22678;52.052;4.242;2023-02-18T02:37:15;102075.84;;;9.62;100.00
36692;BME280;22678;52.052;4.242;2023-02-18T02:48:53;102051.97;;;9.46;100.00
36692;BME280;22678;52.052;4.242;2023-02-18T02:51:32;102038.75;;;9.42;100.00
36692;BME280;22678;52.052;4.242;2023-02-18T02:56:40;102052.75;;;9.39;100.00
36692;BME280;22678;52.052;4.242;2023-02-18T02:59:08;102058.91;;;9.43;100.00
36692;BME280;22678;52.052;4.242;2023-02-18T03:07:06;102048.47;;;9.46;100.00
36692;BME280;22678;52.052;4.242;2023-02-18T03:09:55;102029.22;;;9.45;100.00
36692;BME280;22678;52.052;4.242;2023-02-18T03:17:41;102023.03;;;9.43;100.00
36692;BME280;22678;52.052;4.242;2023-02-18T03:20:24;102008.16;;;9.42;100.00
36692;BME280;22678;52.052;4.242;2023-02-18T03:22:52;102009.13;;;9.49;100.00
36692;BME280;22678;52.052;4.242;2023-02-18T03:25:18;101992.44;;;9.44;100.00
36692;BME280;22678;52.052;4.242;2023-02-18T03:27:51;102002.97;;;9.47;100.00
36692;BME280;22678;52.052;4.242;2023-02-18T03:30:22;101987.19;;;9.44;100.00
36692;BME280;22678;52.052;4.242;2023-02-18T03:32:52;101991.66;;;9.51;100.00
36692;BME280;22678;52.052;4.242;2023-02-18T03:35:20;101975.78;;;9.45;100.00
36692;BME280;22678;52.052;4.242;2023-02-18T03:37:52;101996.94;;;9.53;100.00
36692;BME280;22678;52.052;4.242;2023-02-18T03:40:22;101986.47;;;9.56;100.00
36692;BME280;22678;52.052;4.242;2023-02-18T03:42:47;101972.31;;;9.46;100.00
36692;BME280;22678;52.052;4.242;2023-02-18T03:45:13;101968.06;;;9.54;100.00
36692;BME280;22678;52.052;4.242;2023-02-18T03:47:38;101968.88;;;9.49;100.00
36692;BME280;22678;52.052;4.242;2023-02-18T03:50:04;101965.31;;;9.48;100.00
36692;BME280;22678;52.052;4.242;2023-02-18T03:52:29;101979.38;;;9.49;100.00
36692;BME280;22678;52.052;4.242;2023-02-18T03:54:54;101983.81;;;9.54;100.00
36692;BME280;22678;52.052;4.242;2023-02-18T03:57:20;101967.13;;;9.51;100.00
36692;BME280;22678;52.052;4.242;2023-02-18T03:59:45;101980.34;;;9.57;100.00
36692;BME280;22678;52.052;4.242;2023-02-18T04:02:10;101936.44;;;9.48;100.00
36692;BME280;22678;52.052;4.242;2023-02-18T04:04:35;101973.41;;;9.60;100.00
36692;BME280;22678;52.052;4.242;2023-02-18T04:07:01;101962.84;;;9.56;100.00
36692;BME280;22678;52.052;4.242;2023-02-18T04:09:26;101968.97;;;9.58;100.00
36692;BME280;22678;52.052;4.242;2023-02-18T04:11:51;101961.03;;;9.53;100.00
36692;BME280;22678;52.052;4.242;2023-02-18T04:14:17;101954.06;;;9.55;100.00
36692;BME280;22678;52.052;4.242;2023-02-18T04:16:42;101954.94;;;9.54;100.00
36692;BME280;22678;52.052;4.242;2023-02-18T04:19:07;101975.16;;;9.60;100.00
36692;BME280;22678;52.052;4.242;2023-02-18T04:21:33;101940.03;;;9.53;100.00
36692;BME280;22678;52.052;4.242;2023-02-18T04:23:59;101962.84;;;9.57;100.00
36692;BME280;22678;52.052;4.242;2023-02-18T04:26:24;101944.41;;;9.51;100.00
36692;BME280;22678;52.052;4.242;2023-02-18T04:28:50;101929.50;;;9.50;100.00
36692;BME280;22678;52.052;4.242;2023-02-18T04:31:15;101943.59;;;9.58;100.00
36692;BME280;22678;52.052;4.242;2023-02-18T04:33:40;101930.59;;;9.66;100.00
36692;BME280;22678;52.052;4.242;2023-02-18T04:36:06;101932.31;;;9.67;100.00
36692;BME280;22678;52.052;4.242;2023-02-18T04:38:31;101928.06;;;9.74;100.00
36692;BME280;22678;52.052;4.242;2023-02-18T04:40:57;101906.03;;;9.64;100.00
36692;BME280;22678;52.052;4.242;2023-02-18T04:43:22;101914.88;;;9.69;100.00
36692;BME280;22678;52.052;4.242;2023-02-18T04:45:47;101905.25;;;9.73;100.00
36692;BME280;22678;52.052;4.242;2023-02-18T04:48:12;101914.03;;;9.72;100.00
36692;BME280;22678;52.052;4.242;2023-02-18T04:50:38;101903.44;;;9.69;100.00
36692;BME280;22678;52.052;4.242;2023-02-18T04:53:03;101911.38;;;9.70;100.00
36692;BME280;22678;52.052;4.242;2023-02-18T04:55:29;101908.72;;;9.69;100.00
36692;BME280;22678;52.052;4.242;2023-02-18T04:57:54;101914.03;;;9.72;100.00
36692;BME280;22678;52.052;4.242;2023-02-18T05:00:19;101912.25;;;9.71;100.00
36692;BME280;22678;52.052;4.242;2023-02-18T05:02:45;101928.94;;;9.77;100.00
36692;BME280;22678;52.052;4.242;2023-02-18T05:05:12;101924.59;;;9.78;100.00
36692;BME280;22678;52.052;4.242;2023-02-18T05:07:37;101924.59;;;9.78;100.00
36692;BME280;22678;52.052;4.242;2023-02-18T05:10:04;101907.03;;;9.72;100.00
36692;BME280;22678;52.052;4.242;2023-02-18T05:12:29;101898.31;;;9.75;100.00
36692;BME280;22678;52.052;4.242;2023-02-18T05:14:54;101902.69;;;9.79;100.00
36692;BME280;22678;52.052;4.242;2023-02-18T05:17:20;101893.09;;;9.79;100.00
36692;BME280;22678;52.052;4.242;2023-02-18T05:19:45;101872.97;;;9.81;100.00
36692;BME280;22678;52.052;4.242;2023-02-18T05:22:10;101884.38;;;9.82;100.00
36692;BME280;22678;52.052;4.242;2023-02-18T05:24:36;101867.63;;;9.74;100.00
36692;BME280;22678;52.052;4.242;2023-02-18T05:27:01;101885.22;;;9.81;100.00
36692;BME280;22678;52.052;4.242;2023-02-18T05:29:26;101889.66;;;9.84;100.00
36692;BME280;22678;52.052;4.242;2023-02-18T05:31:51;101877.31;;;9.78;100.00
36692;BME280;22678;52.052;4.242;2023-02-18T05:34:17;101868.63;;;9.82;100.00
36692;BME280;22678;52.052;4.242;2023-02-18T05:36:42;101863.22;;;9.73;100.00
36692;BME280;22678;52.052;4.242;2023-02-18T05:39:08;101879.03;;;9.77;100.00
36692;BME280;22678;52.052;4.242;2023-02-18T05:41:33;101888.69;;;9.77;100.00
36692;BME280;22678;52.052;4.242;2023-02-18T05:43:59;101885.19;;;9.76;100.00
36692;BME280;22678;52.052;4.242;2023-02-18T05:46:42;101882.44;;;9.69;100.00
36692;BME280;22678;52.052;4.242;2023-02-18T05:49:08;101879.88;;;9.70;100.00
36692;BME280;22678;52.052;4.242;2023-02-18T05:51:33;101886.81;;;9.67;100.00
36692;BME280;22678;52.052;4.242;2023-02-18T05:53:58;101878.09;;;9.69;100.00
36692;BME280;22678;52.052;4.242;2023-02-18T05:56:24;101865.75;;;9.63;100.00
36692;BME280;22678;52.052;4.242;2023-02-18T05:58:49;101868.38;;;9.63;100.00
36692;BME280;22678;52.052;4.242;2023-02-18T06:01:14;101851.63;;;9.55;100.00
36692;BME280;22678;52.052;4.242;2023-02-18T06:03:39;101864.78;;;9.55;100.00
36692;BME280;22678;52.052;4.242;2023-02-18T06:06:05;101863.09;;;9.60;100.00
36692;BME280;22678;52.052;4.242;2023-02-18T06:08:30;101885.94;;;9.68;100.00
36692;BME280;22678;52.052;4.242;2023-02-18T06:10:56;101864.88;;;9.61;100.00
36692;BME280;22678;52.052;4.242;2023-02-18T06:13:21;101871.91;;;9.65;100.00
36692;BME280;22678;52.052;4.242;2023-02-18T06:15:49;101879.78;;;9.65;100.00
36692;BME280;22678;52.052;4.242;2023-02-18T06:18:15;101864.00;;;9.62;100.00
36692;BME280;22678;52.052;4.242;2023-02-18T06:20:40;101875.44;;;9.68;100.00
36692;BME280;22678;52.052;4.242;2023-02-18T06:23:05;101872.78;;;9.64;100.00
36692;BME280;22678;52.052;4.242;2023-02-18T06:25:31;101866.63;;;9.62;100.00
36692;BME280;22678;52.052;4.242;2023-02-18T06:27:56;101884.19;;;9.68;100.00
36692;BME280;22678;52.052;4.242;2023-02-18T06:30:21;101887.66;;;9.65;100.00
36692;BME280;22678;52.052;4.242;2023-02-18T06:32:46;101869.22;;;9.61;100.00
36692;BME280;22678;52.052;4.242;2023-02-18T06:35:12;101880.72;;;9.71;100.00
36692;BME280;22678;52.052;4.242;2023-02-18T06:37:37;101878.97;;;9.70;100.00
36692;BME280;22678;52.052;4.242;2023-02-18T06:40:03;101872.84;;;9.69;100.00
36692;BME280;22678;52.052;4.242;2023-02-18T06:42:29;101890.38;;;9.70;100.00
36692;BME280;22678;52.052;4.242;2023-02-18T06:44:54;101863.19;;;9.68;100.00
36692;BME280;22678;52.052;4.242;2023-02-18T06:47:19;101867.59;;;9.69;100.00
36692;BME280;22678;52.052;4.242;2023-02-18T06:49:45;101870.16;;;9.64;100.00
36692;BME280;22678;52.052;4.242;2023-02-18T06:52:10;101871.88;;;9.62;100.00
36692;BME280;22678;52.052;4.242;2023-02-18T06:54:35;101871.84;;;9.61;100.00
36692;BME280;22678;52.052;4.242;2023-02-18T06:57:01;101857.81;;;9.57;100.00
36692;BME280;22678;52.052;4.242;2023-02-18T06:59:26;101873.69;;;9.67;100.00
36692;BME280;22678;52.052;4.242;2023-02-18T07:01:52;101867.50;;;9.61;100.00
36692;BME280;22678;52.052;4.242;2023-02-18T07:04:17;101863.09;;;9.60;100.00
36692;BME280;22678;52.052;4.242;2023-02-18T07:06:42;101868.31;;;9.57;100.00
36692;BME280;22678;52.052;4.242;2023-02-18T07:09:07;101866.56;;;9.59;100.00
36692;BME280;22678;52.052;4.242;2023-02-18T07:11:33;101862.16;;;9.57;100.00
36692;BME280;22678;52.052;4.242;2023-02-18T07:13:58;101859.53;;;9.57;100.00
36692;BME280;22678;52.052;4.242;2023-02-18T07:16:24;101853.41;;;9.55;100.00
36692;BME280;22678;52.052;4.242;2023-02-18T07:18:49;101855.13;;;9.51;100.00
36692;BME280;22678;52.052;4.242;2023-02-18T07:21:14;101855.16;;;9.56;100.00
36692;BME280;22678;52.052;4.242;2023-02-18T07:23:40;101852.50;;;9.51;100.00
36692;BME280;22678;52.052;4.242;2023-02-18T07:26:07;101869.16;;;9.56;100.00
36692;BME280;22678;52.052;4.242;2023-02-18T07:28:33;101865.63;;;9.53;100.00
36692;BME280;22678;52.052;4.242;2023-02-18T07:30:58;101849.72;;;9.42;100.00
36692;BME280;22678;52.052;4.242;2023-02-18T07:33:24;101859.44;;;9.49;100.00
36692;BME280;22678;52.052;4.242;2023-02-18T07:35:57;101877.00;;;9.53;100.00
36692;BME280;22678;52.052;4.242;2023-02-18T07:38:24;101848.91;;;9.46;100.00
36692;BME280;22678;52.052;4.242;2023-02-18T07:40:50;101871.75;;;9.53;100.00
36692;BME280;22678;52.052;4.242;2023-02-18T07:43:16;101868.22;;;9.50;100.00
36692;BME280;22678;52.052;4.242;2023-02-18T07:45:41;101867.31;;;9.49;100.00
36692;BME280;22678;52.052;4.242;2023-02-18T07:48:07;101857.78;;;9.54;99.75
36692;BME280;22678;52.052;4.242;2023-02-18T07:50:32;101845.38;;;9.42;99.35
36692;BME280;22678;52.052;4.242;2023-02-18T07:53:01;101870.06;;;9.58;98.67
36692;BME280;22678;52.052;4.242;2023-02-18T07:55:27;101853.38;;;9.53;98.36
36692;BME280;22678;52.052;4.242;2023-02-18T07:58:12;101867.47;;;9.60;97.87
36692;BME280;22678;52.052;4.242;2023-02-18T08:00:38;101854.25;;;9.55;97.77
36692;BME280;22678;52.052;4.242;2023-02-18T08:03:03;101864.78;;;9.55;97.44
36692;BME280;22678;52.052;4.242;2023-02-18T08:05:28;101861.25;;;9.53;97.32
36692;BME280;22678;52.052;4.242;2023-02-18T08:07:54;101887.66;;;9.65;97.47
36692;BME280;22678;52.052;4.242;2023-02-18T08:10:19;101876.19;;;9.57;97.79
36692;BME280;22678;52.052;4.242;2023-02-18T08:12:44;101880.53;;;9.57;98.33
36692;BME280;22678;52.052;4.242;2023-02-18T08:15:10;101881.47;;;9.59;98.79
36692;BME280;22678;52.052;4.242;2023-02-18T08:17:35;101878.78;;;9.54;99.30
36692;BME280;22678;52.052;4.242;2023-02-18T08:20:00;101871.72;;;9.50;99.40
36692;BME280;22678;52.052;4.242;2023-02-18T08:22:26;101864.69;;;9.49;99.24
36692;BME280;22678;52.052;4.242;2023-02-18T08:24:53;101876.19;;;9.57;99.47
36692;BME280;22678;52.052;4.242;2023-02-18T08:27:20;101880.56;;;9.58;99.63
36692;BME280;22678;52.052;4.242;2023-02-18T08:29:45;101862.94;;;9.48;99.14
36692;BME280;22678;52.052;4.242;2023-02-18T08:32:10;101880.53;;;9.55;99.20
36692;BME280;22678;52.052;4.242;2023-02-18T08:34:36;101881.44;;;9.57;99.03
36692;BME280;22678;52.052;4.242;2023-02-18T08:37:01;101873.44;;;9.48;98.78
36692;BME280;22678;52.052;4.242;2023-02-18T08:39:26;101857.75;;;9.51;98.77
36692;BME280;22678;52.052;4.242;2023-02-18T08:41:52;101880.63;;;9.60;98.61
36692;BME280;22678;52.052;4.242;2023-02-18T08:44:17;101897.25;;;9.62;97.66
36692;BME280;22678;52.052;4.242;2023-02-18T08:46:42;101895.56;;;9.67;98.18
36692;BME280;22678;52.052;4.242;2023-02-18T08:49:08;101890.25;;;9.62;97.52
36692;BME280;22678;52.052;4.242;2023-02-18T08:51:33;101885.13;;;9.70;97.55
36692;BME280;22678;52.052;4.242;2023-02-18T08:53:59;101911.41;;;9.72;97.06
36692;BME280;22678;52.052;4.242;2023-02-18T08:56:24;101917.50;;;9.69;96.69
36692;BME280;22678;52.052;4.242;2023-02-18T08:58:50;101917.50;;;9.71;96.78
36692;BME280;22678;52.052;4.242;2023-02-18T09:01:15;101909.53;;;9.63;96.70
36692;BME280;22678;52.052;4.242;2023-02-18T09:03:41;101908.78;;;9.73;96.81
36692;BME280;22678;52.052;4.242;2023-02-18T09:06:06;101878.06;;;9.68;96.65
36692;BME280;22678;52.052;4.242;2023-02-18T09:08:32;101921.06;;;9.77;96.21
36692;BME280;22678;52.052;4.242;2023-02-18T09:10:58;101916.75;;;9.81;95.67
36692;BME280;22678;52.052;4.242;2023-02-18T09:13:24;101922.94;;;9.86;95.38
36692;BME280;22678;52.052;4.242;2023-02-18T09:16:01;101915.00;;;9.81;94.88
36692;BME280;22678;52.052;4.242;2023-02-18T09:18:28;101911.50;;;9.79;94.82
36692;BME280;22678;52.052;4.242;2023-02-18T09:20:55;101910.59;;;9.79;94.38
36692;BME280;22678;52.052;4.242;2023-02-18T09:23:21;101921.06;;;9.76;94.60
36692;BME280;22678;52.052;4.242;2023-02-18T09:25:46;101909.56;;;9.64;94.77
36692;BME280;22678;52.052;4.242;2023-02-18T09:28:12;101914.91;;;9.72;95.08
36692;BME280;22678;52.052;4.242;2023-02-18T09:30:39;101927.19;;;9.73;95.06
36692;BME280;22678;52.052;4.242;2023-02-18T09:33:04;101936.06;;;9.85;95.15
36692;BME280;22678;52.052;4.242;2023-02-18T09:35:30;101933.31;;;9.74;95.33
36692;BME280;22678;52.052;4.242;2023-02-18T09:37:55;101925.50;;;9.80;95.21
36692;BME280;22678;52.052;4.242;2023-02-18T09:40:30;101945.75;;;9.90;95.16
36692;BME280;22678;52.052;4.242;2023-02-18T09:42:57;101931.72;;;9.87;94.91
36692;BME280;22678;52.052;4.242;2023-02-18T09:45:23;101946.59;;;9.88;94.67
36692;BME280;22678;52.052;4.242;2023-02-18T09:47:49;101954.50;;;9.89;94.99
36692;BME280;22678;52.052;4.242;2023-02-18T09:50:25;101948.38;;;9.90;94.66
36692;BME280;22678;52.052;4.242;2023-02-18T09:52:51;101938.75;;;9.91;94.34
36692;BME280;22678;52.052;4.242;2023-02-18T09:55:34;101956.31;;;9.93;94.71
36692;BME280;22678;52.052;4.242;2023-02-18T09:58:14;101960.72;;;9.96;94.50
36692;BME280;22678;52.052;4.242;2023-02-18T10:00:50;101951.06;;;9.95;94.49
36692;BME280;22678;52.052;4.242;2023-02-18T10:03:20;101966.88;;;9.99;94.85
36692;BME280;22678;52.052;4.242;2023-02-18T10:08:24;101952.81;;;9.93;94.67
36692;BME280;22678;52.052;4.242;2023-02-18T10:10:50;101971.22;;;9.94;95.14
36692;BME280;22678;52.052;4.242;2023-02-18T10:13:20;101977.47;;;10.03;95.23
36692;BME280;22678;52.052;4.242;2023-02-18T10:15:47;101968.69;;;10.04;95.61
36692;BME280;22678;52.052;4.242;2023-02-18T10:18:24;101956.47;;;10.04;95.48
36692;BME280;22678;52.052;4.242;2023-02-18T10:21:11;101970.50;;;10.08;95.46
36692;BME280;22678;52.052;4.242;2023-02-18T10:23:41;101972.28;;;10.09;94.95
36692;BME280;22678;52.052;4.242;2023-02-18T10:26:13;101980.13;;;10.06;94.93
36692;BME280;22678;52.052;4.242;2023-02-18T10:28:40;101976.59;;;10.05;95.03
36692;BME280;22678;52.052;4.242;2023-02-18T10:31:14;101974.91;;;10.09;95.01
36692;BME280;22678;52.052;4.242;2023-02-18T10:36:20;101990.72;;;10.13;95.20
36692;BME280;22678;52.052;4.242;2023-02-18T10:42:09;101987.34;;;10.25;94.71
36692;BME280;22678;52.052;4.242;2023-02-18T10:44:46;101981.28;;;10.29;94.60
36692;BME280;22678;52.052;4.242;2023-02-18T10:50:04;101970.84;;;10.34;94.18
36692;BME280;22678;52.052;4.242;2023-02-18T10:52:39;101969.97;;;10.33;94.72
36692;BME280;22678;52.052;4.242;2023-02-18T10:55:08;101987.50;;;10.38;94.80
36692;BME280;22678;52.052;4.242;2023-02-18T10:57:44;101984.88;;;10.38;94.12
36692;BME280;22678;52.052;4.242;2023-02-18T11:00:15;101991.91;;;10.39;94.36
36692;BME280;22678;52.052;4.242;2023-02-18T11:02:41;101976.16;;;10.40;94.20
36692;BME280;22678;52.052;4.242;2023-02-18T11:05:25;101979.72;;;10.44;93.76
36692;BME280;22678;52.052;4.242;2023-02-18T11:07:53;101991.16;;;10.50;93.67
36692;BME280;22678;52.052;4.242;2023-02-18T11:10:25;101967.41;;;10.40;93.78
36692;BME280;22678;52.052;4.242;2023-02-18T11:13:04;101979.84;;;10.56;93.39
36692;BME280;22678;52.052;4.242;2023-02-18T11:15:31;101981.59;;;10.57;93.27
36692;BME280;22678;52.052;4.242;2023-02-18T11:18:12;101964.03;;;10.53;93.21
36692;BME280;22678;52.052;4.242;2023-02-18T11:20:38;101983.47;;;10.67;93.26
36692;BME280;22678;52.052;4.242;2023-02-18T11:25:38;101994.06;;;10.78;92.21
36692;BME280;22678;52.052;4.242;2023-02-18T11:28:06;101980.84;;;10.71;92.13
36692;BME280;22678;52.052;4.242;2023-02-18T11:30:52;101994.94;;;10.77;91.94
36692;BME280;22678;52.052;4.242;2023-02-18T11:33:21;101983.47;;;10.67;91.99
36692;BME280;22678;52.052;4.242;2023-02-18T11:35:56;101988.66;;;10.64;91.40
36692;BME280;22678;52.052;4.242;2023-02-18T11:38:28;101995.69;;;10.65;91.63
36692;BME280;22678;52.052;4.242;2023-02-18T11:41:05;101991.25;;;10.61;92.09
36692;BME280;22678;52.052;4.242;2023-02-18T11:43:32;101993.88;;;10.58;92.47
36692;BME280;22678;52.052;4.242;2023-02-18T11:48:33;101984.13;;;10.49;92.63
36692;BME280;22678;52.052;4.242;2023-02-18T11:51:00;101984.22;;;10.56;92.89
36692;BME280;22678;52.052;4.242;2023-02-18T11:53:32;101979.88;;;10.62;92.77
36692;BME280;22678;52.052;4.242;2023-02-18T11:56:04;101984.34;;;10.71;92.61
36692;BME280;22678;52.052;4.242;2023-02-18T11:58:40;101973.91;;;10.80;92.89
36692;BME280;22678;52.052;4.242;2023-02-18T12:01:13;101973.28;;;11.09;92.29
36692;BME280;22678;52.052;4.242;2023-02-18T12:06:20;101973.50;;;11.42;90.95
36692;BME280;22678;52.052;4.242;2023-02-18T12:08:51;101973.56;;;11.51;89.25
36692;BME280;22678;52.052;4.242;2023-02-18T12:11:30;101963.94;;;11.53;88.43
36692;BME280;22678;52.052;4.242;2023-02-18T12:13:58;101996.44;;;11.56;87.60
36692;BME280;22678;52.052;4.242;2023-02-18T12:16:38;101965.75;;;11.62;88.25
36692;BME280;22678;52.052;4.242;2023-02-18T12:24:51;101966.81;;;12.05;85.23
36692;BME280;22678;52.052;4.242;2023-02-18T12:27:48;101966.81;;;12.05;85.48
36692;BME280;22678;52.052;4.242;2023-02-18T12:30:31;101964.19;;;12.04;85.45
36692;BME280;22678;52.052;4.242;2023-02-18T12:33:18;101980.06;;;12.15;84.67
36692;BME280;22678;52.052;4.242;2023-02-18T12:35:57;102000.25;;;12.06;83.80
36692;BME280;22678;52.052;4.242;2023-02-18T12:39:18;101964.19;;;12.01;84.44
36692;BME280;22678;52.052;4.242;2023-02-18T12:47:27;101989.66;;;11.94;84.85
36692;BME280;22678;52.052;4.242;2023-02-18T13:02:56;101984.28;;;11.89;85.09
36692;BME280;22678;52.052;4.242;2023-02-18T13:06:28;101971.13;;;11.91;84.89
36692;BME280;22678;52.052;4.242;2023-02-18T13:08:49;101992.31;;;12.02;84.74
36692;BME280;22678;52.052;4.242;2023-02-18T13:14:10;101984.41;;;12.00;84.12
36692;BME280;22678;52.052;4.242;2023-02-18T13:16:38;101975.50;;;11.86;84.05
36692;BME280;22678;52.052;4.242;2023-02-18T13:21:51;101975.50;;;11.83;84.83
36692;BME280;22678;52.052;4.242;2023-02-18T13:26:57;101968.44;;;11.74;85.01
36692;BME280;22678;52.052;4.242;2023-02-18T13:29:38;101982.53;;;11.81;84.97
36692;BME280;22678;52.052;4.242;2023-02-18T13:34:58;101991.34;;;11.89;85.31
36692;BME280;22678;52.052;4.242;2023-02-18T13:40:14;102002.00;;;12.04;84.97
36692;BME280;22678;52.052;4.242;2023-02-18T13:42:40;101995.81;;;12.05;84.22
36692;BME280;22678;52.052;4.242;2023-02-18T13:45:22;101973.91;;;12.16;83.74
36692;BME280;22678;52.052;4.242;2023-02-18T13:47:48;101996.78;;;12.26;83.03
36692;BME280;22678;52.052;4.242;2023-02-18T13:50:23;101985.38;;;12.25;83.18
36692;BME280;22678;52.052;4.242;2023-02-18T13:58:15;101983.66;;;12.37;82.73
36692;BME280;22678;52.052;4.242;2023-02-18T14:00:48;101966.91;;;12.27;82.21
36692;BME280;22678;52.052;4.242;2023-02-18T14:03:34;101980.97;;;12.29;82.08
36692;BME280;22678;52.052;4.242;2023-02-18T14:06:00;101980.97;;;12.26;82.29
36692;BME280;22678;52.052;4.242;2023-02-18T14:08:34;101989.72;;;12.22;82.70
36692;BME280;22678;52.052;4.242;2023-02-18T14:13:54;101985.34;;;12.21;82.88
36692;BME280;22678;52.052;4.242;2023-02-18T14:19:36;101975.66;;;12.15;82.53
36692;BME280;22678;52.052;4.242;2023-02-18T14:22:27;101983.56;;;12.12;82.65
36692;BME280;22678;52.052;4.242;2023-02-18T14:25:15;101994.09;;;12.04;83.02
36692;BME280;22678;52.052;4.242;2023-02-18T14:27:41;101970.31;;;12.00;83.19
36692;BME280;22678;52.052;4.242;2023-02-18T14:30:29;101982.63;;;11.99;83.42
36692;BME280;22678;52.052;4.242;2023-02-18T14:32:59;101985.25;;;11.95;83.97
36692;BME280;22678;52.052;4.242;2023-02-18T14:35:38;101980.81;;;11.92;84.28
36692;BME280;22678;52.052;4.242;2023-02-18T14:49:47;101981.63;;;11.79;84.69
36692;BME280;22678;52.052;4.242;2023-02-18T14:52:55;101987.75;;;11.78;85.00
36692;BME280;22678;52.052;4.242;2023-02-18T14:55:23;101974.56;;;11.78;85.35
36692;BME280;22678;52.052;4.242;2023-02-18T14:58:17;101973.72;;;11.77;85.09
36692;BME280;22678;52.052;4.242;2023-02-18T15:00:48;101975.41;;;11.67;85.17
36692;BME280;22678;52.052;4.242;2023-02-18T15:03:16;101972.81;;;11.73;85.43
36692;BME280;22678;52.052;4.242;2023-02-18T15:05:43;101986.00;;;11.70;85.33
36692;BME280;22678;52.052;4.242;2023-02-18T15:08:36;101982.44;;;11.65;85.68